Pagina principale
METAR-TAF:

METAR-TAF

Aeroporti :

Aeroporto di Cefalonia

Cefalonia, Grecia

latitudine: 38-07N, longitudine: 020-30E, altezza: 19 m

Osservazione

Il bollettino è stato emesso 32 minuti fa, alle 18:50 UTC
Vento 7 kt da nord/nord-ovest
Temperature 14°C
Umidità 88%
Pressione 1024 hPa
Visibilità 10 km o più
nessuna nube inferiore a 1500 m e nessun cumulonembo

METAR: LGKF 191850Z 34007KT CAVOK 14/12 Q1024

Ora: 22:22 (19:22 UTC)

Previsione

Il bollettino è stato emesso 2 ore e 22 minuti fa, alle 17:00 UTC
Previsione valida dal 19 alle 18 UTC al 20 alle 03 UTC
Vento 14 kt da ovest
Visibilità 10 km o più
Poco nuvoloso ad un'altezza di 1800 ft
Evoluzione graduale
dal 19 alle 19 UTC al 19 alle 21 UTC
Vento 5 kt da direzioni variabili

TAF: LGKF 191700Z 1918/2003 28014KT 9999 FEW018 BECMG 1919/1921 VRB05KT

Osservazioni e previsioni meteorologiche di più di 4000 aeroporti (messaggi METAR e TAF).

Le stazioni disponibili sono rappresentate dai dischi gialli e rossi sulla carta.

Puntare il mouse per vedere il nome della stazione.

Clicca sopra per visualizzare le osservazioni e previsioni meteorologiche.

Per cambiare la mappa : fare clic sui pulsanti verdi con una croce nera per ingrandire, il pulsante verde con un trattino per diminuire, o sulla freccia verde per le mappe adiacenti.


METAR-TAF: